createdAt,value
2022-10-09T00:01:29.686Z,11.70
2022-10-09T00:03:58.635Z,11.66
2022-10-09T00:06:32.862Z,11.72
2022-10-09T00:09:04.420Z,11.72
2022-10-09T00:11:34.013Z,11.70
2022-10-09T00:14:06.541Z,11.62
2022-10-09T00:16:36.176Z,11.60
2022-10-09T00:19:05.025Z,11.58
2022-10-09T00:21:34.457Z,11.58
2022-10-09T00:24:04.203Z,11.62
2022-10-09T00:26:32.316Z,11.56
2022-10-09T00:29:00.013Z,11.62
2022-10-09T00:31:27.808Z,11.54
2022-10-09T00:33:55.469Z,11.58
2022-10-09T00:36:25.420Z,11.55
2022-10-09T00:38:54.672Z,11.55
2022-10-09T00:41:31.480Z,11.48
2022-10-09T00:44:01.609Z,11.49
2022-10-09T00:46:35.180Z,11.48
2022-10-09T00:49:18.112Z,11.46
2022-10-09T00:51:48.677Z,11.49
2022-10-09T00:54:22.746Z,11.48
2022-10-09T00:56:51.121Z,11.54
2022-10-09T00:59:19.681Z,11.52
2022-10-09T01:01:47.915Z,11.48
2022-10-09T01:04:15.899Z,11.46
2022-10-09T01:06:59.831Z,11.47
2022-10-09T01:09:41.528Z,11.45
2022-10-09T01:12:08.980Z,11.48
2022-10-09T01:14:44.221Z,11.48
2022-10-09T01:17:24.813Z,11.47
2022-10-09T01:20:25.926Z,11.40
2022-10-09T01:23:18.592Z,11.40
2022-10-09T01:26:11.072Z,11.37
2022-10-09T01:28:47.485Z,11.39
2022-10-09T01:31:17.186Z,11.42
2022-10-09T01:33:46.672Z,11.37
2022-10-09T01:36:16.641Z,11.35
2022-10-09T01:38:45.670Z,11.35
2022-10-09T01:41:13.573Z,11.36
2022-10-09T01:43:41.688Z,11.35
2022-10-09T01:46:29.761Z,11.31
2022-10-09T01:49:03.459Z,11.30
2022-10-09T01:51:40.425Z,11.31
2022-10-09T01:54:12.041Z,11.26
2022-10-09T01:56:40.135Z,11.20
2022-10-09T01:59:15.822Z,11.22
2022-10-09T02:01:46.272Z,11.16
2022-10-09T02:04:16.884Z,11.15
2022-10-09T02:06:47.373Z,11.16
2022-10-09T02:09:18.219Z,11.18
2022-10-09T02:11:51.626Z,11.14
2022-10-09T02:14:19.993Z,11.10
2022-10-09T02:16:54.966Z,11.00
2022-10-09T02:19:31.677Z,10.92
2022-10-09T02:22:13.161Z,10.96
2022-10-09T02:24:42.449Z,10.98
2022-10-09T02:27:12.593Z,11.01
2022-10-09T02:29:42.931Z,11.03
2022-10-09T02:32:11.520Z,11.03
2022-10-09T02:34:40.672Z,11.02
2022-10-09T02:37:08.784Z,10.99
2022-10-09T02:39:36.458Z,10.96
2022-10-09T02:42:04.925Z,11.00
2022-10-09T02:44:32.699Z,10.94
2022-10-09T02:47:00.125Z,11.00
2022-10-09T02:49:28.049Z,10.99
2022-10-09T02:51:55.577Z,11.00
2022-10-09T02:54:23.010Z,10.93
2022-10-09T02:56:50.489Z,10.85
2022-10-09T02:59:18.197Z,10.86
2022-10-09T03:01:46.804Z,10.81
2022-10-09T03:04:14.470Z,10.88
2022-10-09T03:06:42.184Z,10.88
2022-10-09T03:09:09.757Z,10.85
2022-10-09T03:11:37.204Z,10.80
2022-10-09T03:14:05.588Z,10.73
2022-10-09T03:16:33.172Z,10.77
2022-10-09T03:19:00.769Z,10.77
2022-10-09T03:21:28.915Z,10.68
2022-10-09T03:23:56.557Z,10.71
2022-10-09T03:26:27.081Z,10.73
2022-10-09T03:28:55.772Z,10.71
2022-10-09T03:34:14.227Z,10.59
2022-10-09T03:36:42.411Z,10.60
2022-10-09T03:39:10.128Z,10.57
2022-10-09T03:41:38.015Z,10.55
2022-10-09T03:44:05.640Z,10.53
2022-10-09T03:46:33.289Z,10.47
2022-10-09T03:49:00.947Z,10.50
2022-10-09T03:51:28.982Z,10.47
2022-10-09T03:53:56.469Z,10.47
2022-10-09T03:56:24.295Z,10.45
2022-10-09T03:58:51.822Z,10.46
2022-10-09T04:01:19.451Z,10.48
2022-10-09T04:03:47.114Z,10.48
2022-10-09T04:06:15.096Z,10.46
2022-10-09T04:08:43.140Z,10.46
2022-10-09T04:11:10.649Z,10.41
2022-10-09T04:13:38.669Z,10.48
2022-10-09T04:16:09.475Z,10.43
2022-10-09T04:18:36.980Z,10.48
2022-10-09T04:21:04.466Z,10.53
2022-10-09T04:23:32.412Z,10.50
2022-10-09T04:26:00.400Z,10.56
2022-10-09T04:28:29.110Z,10.60
2022-10-09T04:30:57.821Z,10.61
2022-10-09T04:33:26.939Z,10.61
2022-10-09T04:35:55.815Z,10.56
2022-10-09T04:38:24.982Z,10.50
2022-10-09T04:41:00.487Z,10.53
2022-10-09T04:43:28.774Z,10.47
2022-10-09T04:45:56.671Z,10.39
2022-10-09T04:48:24.676Z,10.43
2022-10-09T04:50:52.171Z,10.39
2022-10-09T04:53:19.790Z,10.46
2022-10-09T04:55:47.353Z,10.49
2022-10-09T04:58:15.085Z,10.53
2022-10-09T05:00:44.812Z,10.57
2022-10-09T05:03:13.099Z,10.60
2022-10-09T05:05:41.809Z,10.66
2022-10-09T05:08:09.736Z,10.70
2022-10-09T05:10:38.235Z,10.74
2022-10-09T05:13:05.888Z,10.71
2022-10-09T05:15:37.673Z,10.77
2022-10-09T05:18:05.444Z,10.74
2022-10-09T05:20:32.994Z,10.79
2022-10-09T05:23:00.702Z,10.78
2022-10-09T05:25:28.232Z,10.85
2022-10-09T05:27:56.350Z,10.92
2022-10-09T05:30:23.932Z,10.95
2022-10-09T05:32:52.201Z,10.94
2022-10-09T05:35:19.788Z,10.95
2022-10-09T05:37:47.530Z,10.94
2022-10-09T05:40:15.128Z,10.92
2022-10-09T05:42:42.588Z,11.00
2022-10-09T05:45:11.471Z,10.97
2022-10-09T05:47:39.288Z,11.09
2022-10-09T05:50:07.333Z,11.11
2022-10-09T05:52:35.811Z,11.19
2022-10-09T05:55:03.830Z,11.24
2022-10-09T05:57:31.704Z,11.30
2022-10-09T05:59:59.184Z,11.38
2022-10-09T06:02:28.722Z,11.39
2022-10-09T06:04:56.286Z,11.41
2022-10-09T06:07:23.919Z,11.48
2022-10-09T06:09:51.820Z,11.49
2022-10-09T06:12:20.017Z,11.61
2022-10-09T06:14:49.583Z,11.65
2022-10-09T06:17:17.055Z,11.77
2022-10-09T06:19:45.815Z,11.77
2022-10-09T06:22:13.700Z,11.78
2022-10-09T06:24:41.176Z,11.81
2022-10-09T06:27:09.122Z,11.93
2022-10-09T06:29:36.994Z,12.00
2022-10-09T06:32:04.589Z,11.97
2022-10-09T06:34:32.408Z,11.96
2022-10-09T06:36:59.977Z,12.00
2022-10-09T06:39:27.492Z,12.14
2022-10-09T06:41:54.986Z,12.19
2022-10-09T06:44:41.769Z,12.23
2022-10-09T06:47:09.271Z,12.27
2022-10-09T06:49:36.781Z,12.30
2022-10-09T06:52:04.433Z,12.39
2022-10-09T06:54:33.491Z,12.40
2022-10-09T06:57:01.199Z,12.41
2022-10-09T06:59:29.671Z,12.49
2022-10-09T07:01:57.287Z,12.64
2022-10-09T07:04:24.758Z,12.66
2022-10-09T07:06:52.283Z,12.74
2022-10-09T07:09:19.817Z,12.76
2022-10-09T07:11:49.381Z,12.86
2022-10-09T07:14:17.570Z,12.95
2022-10-09T07:16:47.532Z,13.06
2022-10-09T07:19:17.762Z,13.16
2022-10-09T07:21:47.993Z,13.29
2022-10-09T07:24:16.883Z,13.36
2022-10-09T07:26:47.175Z,13.40
2022-10-09T07:29:16.849Z,13.41
2022-10-09T07:31:45.050Z,13.54
2022-10-09T07:34:12.689Z,13.62
2022-10-09T07:36:40.328Z,13.72
2022-10-09T07:39:08.607Z,13.78
2022-10-09T07:41:36.757Z,13.84
2022-10-09T07:44:05.392Z,13.93
2022-10-09T07:46:34.356Z,13.96
2022-10-09T07:49:03.170Z,14.05
2022-10-09T07:51:32.030Z,14.09
2022-10-09T07:54:01.994Z,14.16
2022-10-09T07:56:35.648Z,14.27
2022-10-09T07:59:05.813Z,14.36
2022-10-09T08:01:35.269Z,14.44
2022-10-09T08:04:04.135Z,14.48
2022-10-09T08:06:32.311Z,14.50
2022-10-09T08:09:01.505Z,14.61
2022-10-09T08:11:30.498Z,14.70
2022-10-09T08:14:01.626Z,14.76
2022-10-09T08:16:31.560Z,14.86
2022-10-09T08:19:01.917Z,14.94
2022-10-09T08:21:33.011Z,15.01
2022-10-09T08:24:00.808Z,15.06
2022-10-09T08:26:30.082Z,15.16
2022-10-09T08:29:05.354Z,15.24
2022-10-09T08:31:33.158Z,15.36
2022-10-09T08:34:02.946Z,15.41
2022-10-09T08:36:31.179Z,15.52
2022-10-09T08:39:00.745Z,15.67
2022-10-09T08:41:44.548Z,15.71
2022-10-09T08:44:17.257Z,15.82
2022-10-09T08:47:14.305Z,15.96
2022-10-09T08:49:51.021Z,16.13
2022-10-09T08:52:38.701Z,16.23
2022-10-09T08:55:26.405Z,16.21
2022-10-09T08:57:56.382Z,16.21
2022-10-09T09:00:28.290Z,16.19
2022-10-09T09:03:32.965Z,16.33
2022-10-09T09:06:10.867Z,16.44
2022-10-09T09:09:02.003Z,16.54
2022-10-09T09:11:48.303Z,16.64
2022-10-09T09:14:53.945Z,16.70
2022-10-09T09:17:34.645Z,16.75
2022-10-09T09:20:20.868Z,16.84
2022-10-09T09:22:50.528Z,16.93
2022-10-09T09:25:25.484Z,17.06
2022-10-09T09:27:57.275Z,17.13
2022-10-09T09:30:31.287Z,17.18
2022-10-09T09:33:19.516Z,17.25
2022-10-09T09:36:02.134Z,17.34
2022-10-09T09:38:30.631Z,17.37
2022-10-09T09:40:58.513Z,17.46
2022-10-09T09:43:27.160Z,17.58
2022-10-09T09:45:57.449Z,17.54
2022-10-09T09:48:28.476Z,17.49
2022-10-09T09:51:16.173Z,17.49
2022-10-09T09:53:48.281Z,17.49
2022-10-09T09:56:17.064Z,17.52
2022-10-09T09:58:47.240Z,17.54
2022-10-09T10:01:22.794Z,17.57
2022-10-09T10:03:53.356Z,17.71
2022-10-09T10:06:28.920Z,17.75
2022-10-09T10:09:05.064Z,17.75
2022-10-09T10:11:44.922Z,17.86
2022-10-09T10:14:15.631Z,17.82
2022-10-09T10:16:44.430Z,17.82
2022-10-09T10:19:24.040Z,17.83
2022-10-09T10:21:57.621Z,17.78
2022-10-09T10:24:32.905Z,17.76
2022-10-09T10:27:07.532Z,17.72
2022-10-09T10:29:42.531Z,17.68
2022-10-09T10:32:17.508Z,17.63
2022-10-09T10:34:53.794Z,17.66
2022-10-09T10:37:30.876Z,17.69
2022-10-09T10:40:14.687Z,17.75
2022-10-09T10:43:09.427Z,17.86
2022-10-09T10:45:48.676Z,17.91
2022-10-09T10:48:23.492Z,17.93
2022-10-09T10:51:06.756Z,18.01
2022-10-09T10:53:57.328Z,18.03
2022-10-09T10:56:31.090Z,18.06
2022-10-09T10:59:37.767Z,18.06
2022-10-09T11:02:32.013Z,18.08
2022-10-09T11:05:23.091Z,18.04
2022-10-09T11:08:14.665Z,18.01
2022-10-09T11:11:05.126Z,18.00
2022-10-09T11:13:49.357Z,17.96
2022-10-09T11:16:19.558Z,17.97
2022-10-09T11:19:05.443Z,17.98
2022-10-09T11:21:53.868Z,18.04
2022-10-09T11:24:21.306Z,18.09
2022-10-09T11:27:06.749Z,18.07
2022-10-09T11:29:42.935Z,18.10
2022-10-09T11:32:32.383Z,18.18
2022-10-09T11:35:15.855Z,18.15
2022-10-09T11:37:47.843Z,18.12
2022-10-09T11:40:22.933Z,18.15
2022-10-09T11:43:22.280Z,18.11
2022-10-09T11:46:03.131Z,18.10
2022-10-09T11:48:35.475Z,18.13
2022-10-09T11:51:25.424Z,18.09
2022-10-09T11:53:53.665Z,18.08
2022-10-09T11:56:24.505Z,18.03
2022-10-09T11:59:04.802Z,18.04
2022-10-09T12:01:32.752Z,18.04
2022-10-09T12:04:13.447Z,17.96
2022-10-09T12:06:51.859Z,17.91
2022-10-09T12:09:35.438Z,17.86
2022-10-09T12:12:07.965Z,17.78
2022-10-09T12:14:38.213Z,17.75
2022-10-09T12:17:23.858Z,17.73
2022-10-09T12:20:01.409Z,17.70
2022-10-09T12:22:40.619Z,17.68
2022-10-09T12:25:21.614Z,17.69
2022-10-09T12:27:54.923Z,17.65
2022-10-09T12:30:29.220Z,17.67
2022-10-09T12:33:07.941Z,17.69
2022-10-09T12:35:39.386Z,17.73
2022-10-09T12:38:27.527Z,17.77
2022-10-09T12:40:57.649Z,17.72
2022-10-09T12:43:26.597Z,17.75
2022-10-09T12:45:54.888Z,17.71
2022-10-09T12:48:27.781Z,17.70
2022-10-09T12:50:55.540Z,17.72
2022-10-09T12:53:28.468Z,17.74
2022-10-09T12:56:00.205Z,17.70
2022-10-09T12:58:31.875Z,17.68
2022-10-09T13:01:05.022Z,17.65
2022-10-09T13:03:32.702Z,17.67
2022-10-09T13:06:01.033Z,17.62
2022-10-09T13:08:35.241Z,17.59
2022-10-09T13:11:13.317Z,17.60
2022-10-09T13:13:42.230Z,17.64
2022-10-09T13:16:10.831Z,17.59
2022-10-09T13:18:40.717Z,17.59
2022-10-09T13:21:17.948Z,17.60
2022-10-09T13:23:46.017Z,17.60
2022-10-09T13:26:34.429Z,17.49
2022-10-09T13:29:04.978Z,17.49
2022-10-09T13:31:33.936Z,17.47
2022-10-09T13:34:11.621Z,17.46
2022-10-09T13:36:39.453Z,17.46
2022-10-09T13:39:10.883Z,17.43
2022-10-09T13:41:38.393Z,17.45
2022-10-09T13:44:06.108Z,17.47
2022-10-09T13:46:33.680Z,17.49
2022-10-09T13:49:01.227Z,17.47
2022-10-09T13:51:29.541Z,17.48
2022-10-09T13:53:56.980Z,17.47
2022-10-09T13:56:24.779Z,17.46
2022-10-09T13:58:52.277Z,17.42
2022-10-09T14:01:20.233Z,17.39
2022-10-09T14:03:47.797Z,17.32
2022-10-09T14:06:18.962Z,17.23
2022-10-09T14:08:50.192Z,17.26
2022-10-09T14:11:17.781Z,17.31
2022-10-09T14:14:05.147Z,17.32
2022-10-09T14:16:35.047Z,17.32
2022-10-09T14:19:05.436Z,17.32
2022-10-09T14:21:34.445Z,17.31
2022-10-09T14:24:03.374Z,17.31
2022-10-09T14:26:31.346Z,17.32
2022-10-09T14:29:00.986Z,17.29
2022-10-09T14:31:29.070Z,17.28
2022-10-09T14:33:59.809Z,17.26
2022-10-09T14:36:28.185Z,17.27
2022-10-09T14:38:56.172Z,17.23
2022-10-09T14:41:23.772Z,17.22
2022-10-09T14:43:56.963Z,17.17
2022-10-09T14:46:24.663Z,17.14
2022-10-09T14:48:55.221Z,17.14
2022-10-09T14:51:26.239Z,17.11
2022-10-09T14:54:00.462Z,17.06
2022-10-09T14:56:28.641Z,17.02
2022-10-09T14:58:58.006Z,17.00
2022-10-09T15:01:26.465Z,17.00
2022-10-09T15:03:54.697Z,16.93
2022-10-09T15:06:25.247Z,16.94
2022-10-09T15:08:57.158Z,16.94
2022-10-09T15:11:27.937Z,16.93
2022-10-09T15:13:56.836Z,16.92
2022-10-09T15:16:26.637Z,16.89
2022-10-09T15:18:55.930Z,16.93
2022-10-09T15:21:26.225Z,16.93
2022-10-09T15:23:58.579Z,16.89
2022-10-09T15:26:28.189Z,16.89
2022-10-09T15:28:56.034Z,16.98
2022-10-09T15:31:26.805Z,16.98
2022-10-09T15:33:55.989Z,16.96
2022-10-09T15:36:25.689Z,16.92
2022-10-09T15:38:53.902Z,16.90
2022-10-09T15:41:21.596Z,16.88
2022-10-09T15:43:50.582Z,16.84
2022-10-09T15:46:18.739Z,16.81
2022-10-09T15:48:47.896Z,16.78
2022-10-09T15:51:15.876Z,16.76
2022-10-09T15:53:47.200Z,16.72
2022-10-09T15:56:20.282Z,16.74
2022-10-09T15:58:48.172Z,16.72
2022-10-09T16:01:17.552Z,16.72
2022-10-09T16:03:45.372Z,16.74
2022-10-09T16:06:17.058Z,16.74
2022-10-09T16:08:47.161Z,16.75
2022-10-09T16:11:19.163Z,16.74
2022-10-09T16:13:49.516Z,16.73
2022-10-09T16:16:24.576Z,16.76
2022-10-09T16:18:52.318Z,16.71
2022-10-09T16:21:22.631Z,16.66
2022-10-09T16:23:53.295Z,16.62
2022-10-09T16:26:23.486Z,16.62
2022-10-09T16:28:52.440Z,16.62
2022-10-09T16:31:30.360Z,16.60
2022-10-09T16:33:59.058Z,16.60
2022-10-09T16:36:27.532Z,16.59
2022-10-09T16:38:56.560Z,16.58
2022-10-09T16:41:25.004Z,16.65
2022-10-09T16:43:55.264Z,16.65
2022-10-09T16:46:24.262Z,16.61
2022-10-09T16:48:53.898Z,16.58
2022-10-09T16:51:24.992Z,16.57
2022-10-09T16:53:55.000Z,16.59
2022-10-09T16:56:25.537Z,16.56
2022-10-09T16:58:59.196Z,16.53
2022-10-09T17:01:28.328Z,16.53
2022-10-09T17:03:57.305Z,16.50
2022-10-09T17:06:26.178Z,16.51
2022-10-09T17:08:58.582Z,16.49
2022-10-09T17:11:28.270Z,16.48
2022-10-09T17:13:57.050Z,16.46
2022-10-09T17:16:28.172Z,16.44
2022-10-09T17:18:56.107Z,16.46
2022-10-09T17:21:26.718Z,16.46
2022-10-09T17:23:59.330Z,16.43
2022-10-09T17:26:28.645Z,16.41
2022-10-09T17:28:58.387Z,16.40
2022-10-09T17:31:28.484Z,16.37
2022-10-09T17:33:59.713Z,16.36
2022-10-09T17:36:31.344Z,16.35
2022-10-09T17:38:59.413Z,16.34
2022-10-09T17:41:27.408Z,16.34
2022-10-09T17:43:56.624Z,16.35
2022-10-09T17:46:25.552Z,16.28
2022-10-09T17:48:53.573Z,16.23
2022-10-09T17:51:25.382Z,16.22
2022-10-09T17:53:54.318Z,16.22
2022-10-09T17:56:21.856Z,16.20
2022-10-09T17:58:50.236Z,16.24
2022-10-09T18:01:18.184Z,16.21
2022-10-09T18:03:47.234Z,16.19
2022-10-09T18:06:17.894Z,16.16
2022-10-09T18:08:48.624Z,16.10
2022-10-09T18:11:17.348Z,16.06
2022-10-09T18:13:45.583Z,16.04
2022-10-09T18:16:18.514Z,15.98
2022-10-09T18:18:46.582Z,15.95
2022-10-09T18:21:17.071Z,15.94
2022-10-09T18:23:48.077Z,15.90
2022-10-09T18:26:18.136Z,15.87
2022-10-09T18:28:48.629Z,15.83
2022-10-09T18:31:19.808Z,15.79
2022-10-09T18:33:47.865Z,15.71
2022-10-09T18:36:19.839Z,15.68
2022-10-09T18:38:53.695Z,15.59
2022-10-09T18:41:23.176Z,15.55
2022-10-09T18:43:52.384Z,15.52
2022-10-09T18:46:22.912Z,15.47
2022-10-09T18:48:52.195Z,15.44
2022-10-09T18:51:22.737Z,15.42
2022-10-09T18:53:57.191Z,15.35
2022-10-09T18:56:26.276Z,15.33
2022-10-09T18:58:54.183Z,15.33
2022-10-09T19:01:21.699Z,15.27
2022-10-09T19:03:50.314Z,15.25
2022-10-09T19:06:19.372Z,15.21
2022-10-09T19:08:47.729Z,15.21
2022-10-09T19:11:15.932Z,15.19
2022-10-09T19:13:44.021Z,15.18
2022-10-09T19:16:12.955Z,15.18
2022-10-09T19:18:40.573Z,15.18
2022-10-09T19:21:13.454Z,15.19
2022-10-09T19:23:42.302Z,15.18
2022-10-09T19:26:12.084Z,15.16
2022-10-09T19:28:39.872Z,15.14
2022-10-09T19:31:09.031Z,15.17
2022-10-09T19:33:38.135Z,15.10
2022-10-09T19:36:06.773Z,15.01
2022-10-09T19:38:35.215Z,14.87
2022-10-09T19:41:08.480Z,14.82
2022-10-09T19:43:37.235Z,14.80
2022-10-09T19:46:11.130Z,14.76
2022-10-09T19:48:40.799Z,14.75
2022-10-09T19:51:11.850Z,14.71
2022-10-09T19:53:39.704Z,14.65
2022-10-09T19:56:17.587Z,14.62
2022-10-09T19:58:48.077Z,14.56
2022-10-09T20:01:18.492Z,14.59
2022-10-09T20:03:48.223Z,14.55
2022-10-09T20:06:16.249Z,14.50
2022-10-09T20:08:45.236Z,14.49
2022-10-09T20:11:13.970Z,14.48
2022-10-09T20:13:42.787Z,14.46
2022-10-09T20:16:14.452Z,14.42
2022-10-09T20:18:43.615Z,14.47
2022-10-09T20:21:15.121Z,14.42
2022-10-09T20:23:44.415Z,14.39
2022-10-09T20:26:15.268Z,14.33
2022-10-09T20:28:44.046Z,14.31
2022-10-09T20:31:18.116Z,14.28
2022-10-09T20:33:47.801Z,14.22
2022-10-09T20:36:21.724Z,14.23
2022-10-09T20:38:49.864Z,14.22
2022-10-09T20:41:18.022Z,14.19
2022-10-09T20:43:49.379Z,14.23
2022-10-09T20:46:17.705Z,14.22
2022-10-09T20:48:46.108Z,14.26
2022-10-09T20:51:13.992Z,14.24
2022-10-09T20:53:41.741Z,14.26
2022-10-09T20:56:14.957Z,14.21
2022-10-09T20:58:42.934Z,14.17
2022-10-09T21:01:12.199Z,14.14
2022-10-09T21:03:41.206Z,14.11
2022-10-09T21:06:11.492Z,14.07
2022-10-09T21:08:39.484Z,14.06
2022-10-09T21:11:11.656Z,14.03
2022-10-09T21:13:39.855Z,14.01
2022-10-09T21:16:12.103Z,14.01
2022-10-09T21:18:41.629Z,13.91
2022-10-09T21:21:15.896Z,13.93
2022-10-09T21:23:44.408Z,13.95
2022-10-09T21:26:14.356Z,14.01
2022-10-09T21:28:43.262Z,13.91
2022-10-09T21:31:12.896Z,13.85
2022-10-09T21:33:41.619Z,13.79
2022-10-09T21:36:11.778Z,13.75
2022-10-09T21:38:39.512Z,13.74
2022-10-09T21:41:07.089Z,13.66
2022-10-09T21:43:34.787Z,13.68
2022-10-09T21:46:02.265Z,13.62
2022-10-09T21:48:30.974Z,13.55
2022-10-09T21:50:58.482Z,13.56
2022-10-09T21:53:26.116Z,13.51
2022-10-09T21:55:54.234Z,13.50
2022-10-09T21:58:21.706Z,13.49
2022-10-09T22:01:02.016Z,13.43
2022-10-09T22:03:32.162Z,13.38
2022-10-09T22:06:03.376Z,13.37
2022-10-09T22:08:31.005Z,13.35
2022-10-09T22:10:59.813Z,13.31
2022-10-09T22:13:28.555Z,13.29
2022-10-09T22:15:56.052Z,13.30
2022-10-09T22:18:23.612Z,13.25
2022-10-09T22:20:51.860Z,13.20
2022-10-09T22:23:20.855Z,13.13
2022-10-09T22:25:59.818Z,13.06
2022-10-09T22:28:27.677Z,13.03
2022-10-09T22:31:03.647Z,13.04
2022-10-09T22:33:32.044Z,13.04
2022-10-09T22:36:12.043Z,12.97
2022-10-09T22:38:42.118Z,12.97
2022-10-09T22:41:11.309Z,12.95
2022-10-09T22:43:40.532Z,12.89
2022-10-09T22:46:10.325Z,12.79
2022-10-09T22:48:38.897Z,12.83
2022-10-09T22:51:10.172Z,12.78
2022-10-09T22:53:38.693Z,12.77
2022-10-09T22:56:18.359Z,12.70
2022-10-09T22:58:48.349Z,12.69
2022-10-09T23:01:20.569Z,12.65
2022-10-09T23:03:51.235Z,12.59
2022-10-09T23:06:20.031Z,12.57
2022-10-09T23:08:48.562Z,12.63
2022-10-09T23:11:18.201Z,12.65
2022-10-09T23:13:46.266Z,12.60
2022-10-09T23:16:15.137Z,12.58
2022-10-09T23:18:44.150Z,12.58
2022-10-09T23:21:15.090Z,12.62
2022-10-09T23:23:44.446Z,12.60
2022-10-09T23:26:14.113Z,12.64
2022-10-09T23:28:41.829Z,12.62
2022-10-09T23:31:14.582Z,12.65
2022-10-09T23:33:44.363Z,12.65
2022-10-09T23:36:14.979Z,12.60
2022-10-09T23:38:42.981Z,12.59
2022-10-09T23:41:22.592Z,12.58
2022-10-09T23:43:51.229Z,12.59
2022-10-09T23:46:22.302Z,12.58
2022-10-09T23:48:51.746Z,12.49
2022-10-09T23:51:20.718Z,12.48
2022-10-09T23:53:48.480Z,12.47
2022-10-09T23:56:22.126Z,12.49
2022-10-09T23:58:50.835Z,12.51
